Time;durP1;ratioP1;P1;durP2;ratioP2;P2;SDS_P1;SDS_P2;PMS_P1;PMS_P2;Temp;Humidity;BMP_temperature;BMP_pressure;BME280_temperature;BME280_humidity;BME280_pressure;Samples;Min_cycle;Max_cycle;Signal;HPM_P1;HPM_P2
2023/03/11 01:12:59;;;;;;;88.50;53.00;;;;;;;2.83;75.86;99787.02;106399;1290;613214;-96
2023/03/11 01:16:45;;;;;;;79.80;44.10;;;;;;;2.76;75.90;99785.60;108511;1273;57886;-96
2023/03/11 01:21:33;;;;;;;83.90;47.40;;;;;;;2.72;76.41;99785.93;105610;1292;612709;-96
2023/03/11 01:24:43;;;;;;;;;;;;;;;;;;;;;
2023/03/11 01:27:44;;;;;;;138.10;64.70;;;;;;;2.63;76.82;99779.40;106931;1263;60804;-96
2023/03/11 01:31:56;;;;;;;151.00;74.90;;;;;;;2.62;77.08;99783.06;104667;1291;612288;-96
2023/03/11 01:39:34;;;;;;;164.20;79.80;;;;;;;2.44;78.75;99767.55;107610;1269;63268;-95
2023/03/11 01:42:36;;;;;;;144.80;68.30;;;;;;;2.47;79.08;99763.29;108359;1259;73942;-95
2023/03/11 01:46:11;;;;;;;130.80;65.00;;;;;;;2.48;79.10;99764.46;104499;1263;5746048;-95
2023/03/11 01:50:49;;;;;;;107.20;48.10;;;;;;;2.38;79.15;99761.10;108149;1270;71929;-95
2023/03/11 01:53:49;;;;;;;73.00;40.00;;;;;;;2.26;79.49;99760.52;106487;1277;59700;-96
2023/03/11 01:56:19;;;;;;;73.60;39.40;;;;;;;2.24;79.72;99759.23;105535;1279;60428;-95
2023/03/11 01:58:53;;;;;;;67.90;41.30;;;;;;;2.22;79.97;99749.30;106476;1275;71999;-93
2023/03/11 02:01:23;;;;;;;87.70;46.70;;;;;;;2.19;80.44;99743.39;105914;1276;63472;-94
2023/03/11 02:03:54;;;;;;;81.80;47.40;;;;;;;2.19;80.69;99744.08;105162;1276;73979;-95
2023/03/11 02:06:23;;;;;;;75.10;43.30;;;;;;;2.18;81.12;99736.34;104950;1284;61144;-95
2023/03/11 02:09:01;;;;;;;75.50;40.90;;;;;;;2.21;81.45;99731.92;104717;1282;60508;-96
2023/03/11 02:11:32;;;;;;;106.20;47.40;;;;;;;2.25;81.47;99730.21;104959;1282;72902;-94
2023/03/11 02:14:03;;;;;;;112.80;46.10;;;;;;;2.28;81.39;99730.45;105203;1280;64766;-93
2023/03/11 02:16:33;;;;;;;87.20;47.30;;;;;;;2.26;81.27;99723.29;105188;1276;72838;-93
2023/03/11 02:19:40;;;;;;;87.80;48.20;;;;;;;2.24;81.18;99720.23;106008;1275;60586;-95
2023/03/11 02:22:11;;;;;;;67.00;42.10;;;;;;;2.24;81.29;99721.64;107307;1273;60024;-93
2023/03/11 02:24:55;;;;;;;79.30;41.50;;;;;;;2.23;81.29;99726.85;108041;1273;72871;-92
2023/03/11 02:27:30;;;;;;;94.60;49.90;;;;;;;2.19;81.56;99715.61;106433;1270;63516;-95
2023/03/11 02:30:10;;;;;;;104.70;54.10;;;;;;;2.22;81.78;99714.30;106342;1270;73061;-95
2023/03/11 02:32:48;;;;;;;125.10;59.30;;;;;;;2.27;82.06;99713.07;106831;1264;59860;-95
2023/03/11 02:35:42;;;;;;;126.60;58.40;;;;;;;2.31;82.29;99706.01;107885;1264;60784;-94
2023/03/11 02:38:19;;;;;;;145.30;61.80;;;;;;;2.41;82.52;99705.60;107442;1265;72876;-96
2023/03/11 02:41:17;;;;;;;145.30;59.40;;;;;;;2.45;82.19;99707.83;107687;1264;62680;-95
2023/03/11 02:43:50;;;;;;;98.70;51.90;;;;;;;2.49;81.90;99703.52;107559;1267;73650;-95
2023/03/11 02:46:24;;;;;;;101.00;53.30;;;;;;;2.52;81.91;99694.27;107217;1266;61026;-96
2023/03/11 02:48:59;;;;;;;89.00;51.90;;;;;;;2.57;81.97;99691.84;108660;1267;59185;-96
2023/03/11 02:52:00;;;;;;;183.90;88.50;;;;;;;2.60;82.03;99688.58;108988;1262;71681;-95
2023/03/11 02:54:45;;;;;;;199.40;101.10;;;;;;;2.65;82.33;99688.38;108077;1263;63882;-95
2023/03/11 02:57:28;;;;;;;169.90;84.30;;;;;;;2.70;82.24;99690.40;108844;1263;73910;-96
2023/03/11 03:00:15;;;;;;;153.70;79.80;;;;;;;2.74;82.04;99695.09;108942;1258;58943;-95
2023/03/11 03:03:26;;;;;;;134.50;70.60;;;;;;;2.77;81.62;99688.91;108792;1257;60374;-94
2023/03/11 03:06:27;;;;;;;96.80;55.40;;;;;;;2.74;81.10;99685.95;108869;1257;73280;-95
2023/03/11 03:08:59;;;;;;;99.20;52.30;;;;;;;2.73;81.59;99683.73;109205;1257;61905;-95
2023/03/11 03:11:30;;;;;;;122.10;59.20;;;;;;;2.78;81.73;99674.56;109087;1257;73208;-94
2023/03/11 03:14:16;;;;;;;130.50;64.20;;;;;;;2.76;81.06;99672.02;107721;1257;60223;-95
2023/03/11 03:16:55;;;;;;;104.30;52.40;;;;;;;2.77;81.01;99676.13;108427;1257;59479;-96
2023/03/11 03:19:26;;;;;;;96.60;46.80;;;;;;;2.77;81.13;99673.02;107590;1257;73353;-95
2023/03/11 03:22:03;;;;;;;122.80;62.60;;;;;;;2.78;81.46;99668.52;107350;1257;63230;-95
2023/03/11 03:24:39;;;;;;;122.70;62.40;;;;;;;2.79;81.53;99667.92;106973;1257;72663;-96
2023/03/11 03:27:10;;;;;;;108.90;57.00;;;;;;;2.77;81.10;99660.79;106959;1258;59372;-96
2023/03/11 03:29:41;;;;;;;100.70;51.40;;;;;;;2.74;81.33;99654.51;107065;1257;60491;-96
2023/03/11 03:32:47;;;;;;;122.80;59.80;;;;;;;2.76;82.54;99650.10;107396;1257;73637;-96
2023/03/11 03:35:30;;;;;;;112.60;55.30;;;;;;;2.79;82.90;99644.79;108776;1257;63053;-94
2023/03/11 03:38:29;;;;;;;107.80;56.80;;;;;;;2.74;81.79;99659.16;109151;1255;73049;-95
2023/03/11 03:41:18;;;;;;;91.10;48.60;;;;;;;2.63;81.44;99657.94;109163;1256;59142;-94
2023/03/11 03:44:29;;;;;;;103.90;52.50;;;;;;;2.61;83.04;99648.70;109355;1256;60668;-96
2023/03/11 03:47:03;;;;;;;;;;;;;;;2.64;83.59;99652.34;108085;1256;73867;-96
2023/03/11 03:49:34;;;;;;;110.40;54.10;;;;;;;2.65;83.08;99648.19;109273;1256;63469;-96
2023/03/11 03:52:22;;;;;;;114.70;54.80;;;;;;;2.64;82.87;99656.82;109290;1256;73024;-95
2023/03/11 03:54:54;;;;;;;101.70;54.00;;;;;;;2.61;82.42;99651.46;109186;1256;61294;-96
2023/03/11 03:57:29;;;;;;;76.20;44.10;;;;;;;2.58;82.58;99643.30;108685;1256;60285;-95
2023/03/11 03:59:59;;;;;;;66.40;35.90;;;;;;;2.64;84.36;99634.93;109111;1256;73128;-93
2023/03/11 04:02:53;;;;;;;46.00;28.50;;;;;;;2.74;87.07;99630.38;109126;1256;62106;-94
2023/03/11 04:05:46;;;;;;;49.70;31.10;;;;;;;2.96;91.13;99624.21;109217;1256;72670;-95
2023/03/11 04:08:49;;;;;;;43.70;27.10;;;;;;;3.21;93.26;99619.80;107703;1262;60463;-95
2023/03/11 04:11:21;;;;;;;41.20;25.90;;;;;;;3.42;94.58;99610.36;106562;1262;59635;-95
2023/03/11 04:14:06;;;;;;;36.70;25.00;;;;;;;3.61;95.62;99603.58;106765;1262;75618;-95
2023/03/11 04:16:40;;;;;;;38.20;24.60;;;;;;;3.84;96.28;99608.22;106564;1262;63124;-95
2023/03/11 04:19:14;;;;;;;38.10;25.00;;;;;;;4.01;96.87;99605.50;106618;1263;73002;-96
2023/03/11 04:22:06;;;;;;;38.80;24.80;;;;;;;4.26;97.08;99612.89;107110;1262;61015;-96
2023/03/11 04:24:35;;;;;;;39.90;27.90;;;;;;;4.40;96.78;99615.30;109051;1262;60243;-93
2023/03/11 04:27:05;;;;;;;35.40;24.30;;;;;;;4.49;96.43;99607.20;108974;1262;73183;-94
2023/03/11 04:29:37;;;;;;;37.40;23.20;;;;;;;4.61;96.18;99615.42;109038;1262;63801;-95
2023/03/11 04:32:06;;;;;;;38.90;24.70;;;;;;;4.73;95.83;99607.71;108950;1262;72723;-95
2023/03/11 04:34:42;;;;;;;38.90;24.10;;;;;;;4.85;95.67;99606.20;108322;1263;61781;-96
2023/03/11 04:37:14;;;;;;;38.50;28.10;;;;;;;4.96;95.58;99601.27;106665;1264;59774;-96
2023/03/11 04:40:16;;;;;;;41.00;27.90;;;;;;;5.11;95.27;99606.58;107883;1262;73971;-96
2023/03/11 04:43:19;;;;;;;34.30;25.00;;;;;;;5.21;93.95;99609.30;107920;1264;63577;-96
2023/03/11 04:45:51;;;;;;;41.10;26.90;;;;;;;5.26;93.38;99610.11;106857;1256;71933;-96
2023/03/11 04:48:25;;;;;;;47.80;29.40;;;;;;;5.28;92.92;99607.04;107249;1257;60540;-96
2023/03/11 04:51:09;;;;;;;43.00;29.10;;;;;;;5.33;92.52;99610.39;108160;1258;59484;-95
2023/03/11 04:53:40;;;;;;;47.00;28.40;;;;;;;5.43;92.17;99605.15;109210;1256;72524;-95
2023/03/11 04:56:38;;;;;;;36.60;25.50;;;;;;;5.50;92.00;99592.30;109126;1258;63065;-94
2023/03/11 04:59:25;;;;;;;39.90;26.20;;;;;;;5.61;91.79;99584.25;108996;1260;72746;-96
2023/03/11 05:13:08;;;;;;;32.80;24.50;;;;;;;7.22;88.23;99580.33;105342;1281;616582;-95
2023/03/11 05:16:14;;;;;;;34.70;25.70;;;;;;;7.54;85.42;99569.21;102385;1262;7007829;-95
2023/03/11 05:19:29;;;;;;;29.70;22.50;;;;;;;7.51;84.93;99578.80;107676;1262;73145;-95
2023/03/11 05:22:33;;;;;;;30.80;19.70;;;;;;;7.42;83.95;99577.62;108245;1259;62195;-95
2023/03/11 05:25:58;;;;;;;29.70;20.70;;;;;;;7.22;83.55;99585.80;108216;1268;74747;-96
2023/03/11 05:29:49;;;;;;;26.80;17.10;;;;;;;7.13;84.02;99593.17;106057;1283;613996;-96
2023/03/11 05:32:20;;;;;;;27.30;19.20;;;;;;;7.05;84.20;99598.39;107890;1260;60480;-95
2023/03/11 05:34:56;;;;;;;30.20;19.80;;;;;;;6.98;84.50;99600.52;108418;1253;60815;-95
2023/03/11 05:37:53;;;;;;;23.00;16.20;;;;;;;6.88;84.54;99595.41;109269;1253;72337;-96
2023/03/11 05:40:45;;;;;;;27.40;18.30;;;;;;;6.82;84.95;99590.55;108461;1253;63824;-95
2023/03/11 05:43:16;;;;;;;23.50;18.30;;;;;;;6.81;85.06;99585.02;104418;1251;6785450;-95
2023/03/11 05:46:25;;;;;;;25.00;15.90;;;;;;;6.82;85.22;99584.84;109685;1253;62495;-96
2023/03/11 05:49:08;;;;;;;22.90;16.10;;;;;;;6.81;85.56;99568.77;109661;1253;59492;-95
2023/03/11 05:51:46;;;;;;;21.60;15.00;;;;;;;6.86;85.91;99563.04;109554;1253;71396;-94
2023/03/11 05:54:19;;;;;;;20.50;15.90;;;;;;;6.88;86.20;99565.89;109050;1253;63949;-95
2023/03/11 05:56:48;;;;;;;25.30;18.10;;;;;;;6.88;86.49;99564.84;108960;1256;73038;-94
2023/03/11 05:59:22;;;;;;;25.80;17.80;;;;;;;6.87;86.56;99563.16;108759;1257;60607;-96
2023/03/11 06:01:57;;;;;;;20.30;15.70;;;;;;;6.84;86.98;99565.07;108365;1257;61132;-94
2023/03/11 06:04:31;;;;;;;23.70;17.30;;;;;;;6.82;87.26;99556.13;109060;1257;72169;-94
2023/03/11 06:07:20;;;;;;;24.50;16.70;;;;;;;6.79;88.07;99562.63;108129;1257;64163;-95
2023/03/11 06:10:12;;;;;;;24.00;17.50;;;;;;;6.75;88.87;99565.10;107722;1257;73386;-96
2023/03/11 06:13:18;;;;;;;25.50;16.50;;;;;;;6.74;89.28;99563.30;108000;1257;61770;-96
2023/03/11 06:16:24;;;;;;;20.80;15.60;;;;;;;6.77;89.78;99562.73;107859;1260;60309;-94
2023/03/11 06:19:10;;;;;;;24.50;16.20;;;;;;;6.80;89.97;99556.98;108847;1260;73317;-95
2023/03/11 06:22:13;;;;;;;24.90;17.20;;;;;;;6.85;90.30;99560.66;109075;1260;62838;-96
2023/03/11 06:25:11;;;;;;;24.90;17.30;;;;;;;6.85;90.62;99561.52;109426;1254;71919;-94
2023/03/11 06:28:11;;;;;;;25.90;18.90;;;;;;;6.85;91.24;99561.36;109496;1256;62026;-96
2023/03/11 06:31:13;;;;;;;28.20;19.20;;;;;;;6.88;91.50;99562.04;109641;1255;60372;-96
2023/03/11 06:34:09;;;;;;;26.80;19.30;;;;;;;6.91;91.90;99560.10;109523;1255;73575;-94
2023/03/11 06:36:41;;;;;;;28.80;20.70;;;;;;;6.95;92.11;99552.58;109590;1255;63031;-95
2023/03/11 06:39:14;;;;;;;27.30;18.50;;;;;;;7.04;92.15;99548.04;109610;1255;72760;-96
2023/03/11 06:42:01;;;;;;;35.40;22.10;;;;;;;7.12;92.60;99543.87;109306;1255;61836;-94
2023/03/11 06:44:53;;;;;;;36.80;25.00;;;;;;;7.19;92.73;99542.21;109405;1257;60428;-96
2023/03/11 06:47:52;;;;;;;34.60;23.00;;;;;;;7.35;92.92;99541.39;109117;1257;73152;-94
2023/03/11 06:50:27;;;;;;;30.10;21.50;;;;;;;7.50;92.82;99538.69;108691;1261;63629;-96
2023/03/11 06:53:17;;;;;;;29.20;20.80;;;;;;;7.65;92.40;99527.61;108595;1256;72833;-96
2023/03/11 06:56:01;;;;;;;33.90;20.80;;;;;;;7.77;92.04;99521.95;108451;1258;61987;-93
2023/03/11 06:58:36;;;;;;;29.00;19.60;;;;;;;7.91;91.62;99515.80;109124;1257;60014;-93
2023/03/11 07:01:45;;;;;;;;;;;;;;;8.02;91.26;99514.06;108970;1257;71647;-94
2023/03/11 07:04:14;;;;;;;28.80;19.70;;;;;;;8.09;90.95;99509.34;109204;1257;63909;-91
2023/03/11 07:06:50;;;;;;;35.70;20.50;;;;;;;8.11;90.54;99505.27;109197;1260;74109;-91
2023/03/11 07:09:21;;;;;;;31.20;22.00;;;;;;;8.17;90.39;99508.70;109168;1256;62036;-95
2023/03/11 07:12:13;;;;;;;27.00;20.90;;;;;;;8.21;90.31;99510.85;109221;1257;62974;-95
2023/03/11 07:15:07;;;;;;;37.70;22.50;;;;;;;8.26;90.07;99507.02;108274;1257;72629;-90
2023/03/11 07:17:38;;;;;;;31.80;23.90;;;;;;;8.31;90.19;99505.81;108271;1257;63665;-94
2023/03/11 07:20:05;;;;;;;30.80;22.30;;;;;;;8.39;89.91;99502.67;108039;1261;73700;-95
2023/03/11 07:22:36;;;;;;;31.20;20.70;;;;;;;8.46;89.70;99500.74;108988;1258;61718;-95
2023/03/11 07:25:15;;;;;;;32.30;23.30;;;;;;;8.53;89.63;99499.30;109021;1260;61390;-95
2023/03/11 07:27:56;;;;;;;35.10;23.00;;;;;;;8.64;89.56;99495.35;107934;1260;73058;-96
2023/03/11 07:30:40;;;;;;;35.50;25.70;;;;;;;8.77;89.02;99486.27;108547;1264;63747;-93
2023/03/11 07:33:17;;;;;;;37.20;26.00;;;;;;;8.90;88.56;99487.23;107672;1266;71435;-95
2023/03/11 07:35:49;;;;;;;37.20;26.50;;;;;;;9.00;88.19;99486.77;107380;1261;61877;-96
2023/03/11 07:38:18;;;;;;;31.20;23.90;;;;;;;9.08;87.65;99486.85;107544;1261;60277;-95
2023/03/11 07:40:47;;;;;;;27.70;20.40;;;;;;;9.19;87.29;99482.05;107578;1261;73148;-96
2023/03/11 07:43:16;;;;;;;31.30;19.90;;;;;;;9.27;86.85;99481.45;106984;1261;64109;-95
2023/03/11 07:46:02;;;;;;;26.20;18.90;;;;;;;9.36;86.62;99478.92;106902;1267;73969;-94
2023/03/11 07:48:33;;;;;;;20.30;17.50;;;;;;;9.43;86.34;99476.43;107692;1262;60370;-96
2023/03/11 07:51:12;;;;;;;22.20;18.50;;;;;;;9.49;86.13;99475.29;107544;1267;61285;-95
2023/03/11 07:53:46;;;;;;;28.60;21.60;;;;;;;9.53;86.01;99465.92;108096;1261;74719;-96
2023/03/11 07:56:30;;;;;;;27.60;20.10;;;;;;;9.55;85.92;99461.08;108166;1263;63101;-94
2023/03/11 07:59:03;;;;;;;19.70;15.70;;;;;;;9.57;85.94;99454.66;109089;1260;72989;-95
2023/03/11 08:01:50;;;;;;;21.90;17.20;;;;;;;9.59;86.02;99450.34;108877;1256;63265;-96
2023/03/11 08:04:28;;;;;;;19.80;16.00;;;;;;;9.58;86.31;99447.41;108064;1259;59305;-96
2023/03/11 08:07:02;;;;;;;20.60;14.90;;;;;;;9.61;86.66;99447.77;108495;1257;71896;-95
2023/03/11 08:09:34;;;;;;;20.60;14.80;;;;;;;9.66;86.89;99453.09;108661;1257;63493;-95
2023/03/11 08:12:27;;;;;;;18.70;15.00;;;;;;;9.70;86.85;99450.92;108371;1258;73796;-93
2023/03/11 08:14:59;;;;;;;20.50;14.60;;;;;;;9.66;86.67;99447.54;108368;1257;59990;-95
2023/03/11 08:17:32;;;;;;;16.40;14.70;;;;;;;9.54;86.71;99431.36;108278;1257;60744;-94
2023/03/11 08:20:13;;;;;;;14.80;13.20;;;;;;;9.50;87.24;99429.88;108280;1257;74217;-96
2023/03/11 08:23:05;;;;;;;17.80;13.30;;;;;;;9.50;87.25;99429.31;108386;1257;61704;-96
2023/03/11 08:25:39;;;;;;;15.00;12.80;;;;;;;9.43;87.45;99420.66;108543;1257;71620;-96
2023/03/11 08:29:00;;;;;;;15.40;11.40;;;;;;;9.31;87.70;99426.89;108936;1257;59521;-95
2023/03/11 08:32:24;;;;;;;13.00;11.70;;;;;;;9.17;88.10;99422.36;109139;1256;63405;-95
2023/03/11 08:35:37;;;;;;;14.80;11.70;;;;;;;9.01;88.55;99419.41;109239;1257;71852;-96
2023/03/11 08:38:41;;;;;;;16.90;11.70;;;;;;;8.87;89.02;99418.61;109213;1258;63833;-96
2023/03/11 08:41:29;;;;;;;14.60;11.00;;;;;;;8.80;89.54;99414.64;108960;1261;73013;-96
2023/03/11 08:43:56;;;;;;;16.40;11.70;;;;;;;8.70;90.18;99416.19;108979;1261;62184;-95
2023/03/11 08:46:27;;;;;;;14.20;10.30;;;;;;;8.63;90.67;99417.90;108736;1261;60265;-95
2023/03/11 08:49:02;;;;;;;9.70;8.50;;;;;;;8.59;91.18;99414.16;107146;1261;74235;-95
2023/03/11 08:51:32;;;;;;;9.80;7.40;;;;;;;8.60;91.52;99410.09;108173;1261;63671;-96
2023/03/11 08:54:03;;;;;;;11.40;7.50;;;;;;;8.57;91.69;99407.15;106732;1261;73469;-95
2023/03/11 08:56:46;;;;;;;8.80;7.80;;;;;;;8.54;91.92;99404.75;107571;1261;62112;-94
2023/03/11 08:59:26;;;;;;;9.50;7.20;;;;;;;8.49;92.25;99404.09;107090;1261;61227;-94
2023/03/11 09:01:55;;;;;;;8.60;7.80;;;;;;;8.47;92.81;99411.36;107111;1261;73432;-95
2023/03/11 09:04:25;;;;;;;7.70;6.90;;;;;;;8.46;93.28;99409.69;107288;1261;64221;-96
2023/03/11 09:06:56;;;;;;;9.20;6.70;;;;;;;8.45;93.58;99407.33;107376;1263;72645;-95
2023/03/11 09:09:24;;;;;;;9.10;8.10;;;;;;;8.43;94.03;99409.38;106904;1261;60382;-94
2023/03/11 09:11:55;;;;;;;8.30;7.50;;;;;;;8.44;94.62;99423.39;107260;1261;59834;-96
2023/03/11 09:14:24;;;;;;;7.40;5.90;;;;;;;8.51;94.77;99423.81;106929;1262;72722;-92
2023/03/11 09:16:54;;;;;;;7.20;5.80;;;;;;;8.55;94.85;99425.63;107678;1261;63613;-96
2023/03/11 09:19:22;;;;;;;6.10;5.50;;;;;;;8.52;95.31;99422.91;107583;1259;70658;-94
2023/03/11 09:22:04;;;;;;;6.10;5.20;;;;;;;8.52;95.88;99413.66;107436;1261;62021;-94
2023/03/11 09:24:33;;;;;;;6.80;4.60;;;;;;;8.59;96.63;99411.05;107875;1261;60305;-96
2023/03/11 09:27:07;;;;;;;5.20;4.70;;;;;;;8.68;97.04;99410.21;106653;1262;73871;-96
2023/03/11 09:29:39;;;;;;;9.40;5.40;;;;;;;8.79;96.96;99401.79;107030;1261;62957;-94
2023/03/11 09:32:16;;;;;;;7.80;6.90;;;;;;;8.86;96.85;99394.98;107694;1260;71862;-96
2023/03/11 09:35:08;;;;;;;6.90;6.30;;;;;;;8.97;96.95;99394.05;109055;1258;62241;-96
2023/03/11 09:41:52;;;;;;;6.80;5.90;;;;;;;9.17;96.47;99401.48;105370;1289;612652;-96
2023/03/11 09:44:43;;;;;;;7.60;6.30;;;;;;;9.18;96.13;99390.60;107823;1272;61709;-94
2023/03/11 09:48:10;;;;;;;11.30;7.80;;;;;;;9.22;96.13;99375.63;107566;1275;60020;-94
2023/03/11 09:51:08;;;;;;;8.90;7.20;;;;;;;9.26;96.42;99364.70;106863;1276;72555;-96
2023/03/11 09:59:07;;;;;;;8.30;7.30;;;;;;;9.38;96.42;99347.20;107080;1269;71502;-93
2023/03/11 10:01:52;;;;;;;11.30;7.40;;;;;;;9.45;96.76;99340.41;107017;1270;61986;-94
2023/03/11 10:04:51;;;;;;;10.40;8.10;;;;;;;9.48;96.72;99336.14;107571;1269;60347;-92
2023/03/11 10:07:44;;;;;;;13.10;8.10;;;;;;;9.50;96.94;99331.63;107326;1277;71942;-94
2023/03/11 10:10:16;;;;;;;10.10;8.00;;;;;;;9.58;97.39;99322.35;107223;1277;64006;-94
2023/03/11 10:13:04;;;;;;;9.80;8.80;;;;;;;9.61;97.32;99319.50;108044;1265;73643;-94
2023/03/11 10:16:02;;;;;;;10.50;8.70;;;;;;;9.62;97.51;99314.14;108830;1254;61761;-92
2023/03/11 10:19:56;;;;;;;11.10;8.70;;;;;;;9.71;97.80;99304.40;109128;1251;59349;-92
2023/03/11 10:27:29;;;;;;;15.00;10.60;;;;;;;9.83;98.07;99282.73;107533;1264;63702;-94
2023/03/11 10:30:33;;;;;;;16.10;10.70;;;;;;;9.85;98.13;99275.58;107610;1263;72658;-91
2023/03/11 10:33:20;;;;;;;11.30;9.40;;;;;;;9.87;98.24;99268.04;108551;1265;61994;-94
2023/03/11 10:35:53;;;;;;;12.60;10.00;;;;;;;9.90;98.31;99259.63;108017;1267;60249;-93
2023/03/11 10:38:30;;;;;;;12.40;9.50;;;;;;;9.88;98.32;99254.19;106827;1265;71777;-95
2023/03/11 10:41:00;;;;;;;13.10;9.30;;;;;;;9.83;98.58;99251.48;106624;1265;64770;-94
2023/03/11 10:43:34;;;;;;;10.90;9.80;;;;;;;9.82;99.11;99239.84;107182;1265;72491;-94
2023/03/11 10:46:23;;;;;;;11.00;8.80;;;;;;;9.83;99.48;99226.63;106463;1265;62907;-94
2023/03/11 10:49:18;;;;;;;14.20;11.40;;;;;;;9.80;99.53;99212.59;107526;1260;60335;-95
2023/03/11 10:51:56;;;;;;;10.90;9.50;;;;;;;9.78;99.95;99207.19;108633;1260;72075;-94
2023/03/11 10:58:00;;;;;;;16.50;11.90;;;;;;;9.76;100.00;99206.79;108878;1262;72226;-95
2023/03/11 11:09:51;;;;;;;17.30;13.50;;;;;;;10.05;100.00;99188.39;108147;1257;73499;-95
2023/03/11 11:14:27;;;;;;;17.40;13.40;;;;;;;10.20;100.00;99178.14;106069;1282;65665;-95
2023/03/11 11:18:28;;;;;;;17.00;12.60;;;;;;;10.32;100.00;99182.22;106134;1278;74097;-96
2023/03/11 11:22:13;;;;;;;18.00;13.50;;;;;;;10.37;100.00;99170.67;106002;1281;61671;-96
2023/03/11 11:25:28;;;;;;;15.80;11.10;;;;;;;10.41;100.00;99174.02;105136;1287;60612;-93
2023/03/11 11:27:59;;;;;;;14.20;11.00;;;;;;;10.44;100.00;99175.83;104485;1282;73978;-96
2023/03/11 11:30:29;;;;;;;15.00;11.40;;;;;;;10.47;100.00;99179.98;105008;1281;64796;-94
2023/03/11 11:33:48;;;;;;;12.10;10.80;;;;;;;10.49;100.00;99175.95;104988;1282;73818;-95
2023/03/11 11:36:15;;;;;;;12.50;9.40;;;;;;;10.51;100.00;99179.98;104107;1292;63191;-92
2023/03/11 11:38:47;;;;;;;10.80;8.70;;;;;;;10.53;100.00;99174.56;104212;1291;60687;-95
2023/03/11 11:41:16;;;;;;;9.60;7.30;;;;;;;10.55;100.00;99171.95;104303;1290;74173;-93
2023/03/11 11:43:58;;;;;;;8.30;7.40;;;;;;;10.56;100.00;99161.02;104825;1284;63991;-94
2023/03/11 11:46:37;;;;;;;8.50;7.10;;;;;;;10.58;100.00;99155.46;106297;1281;72543;-95
2023/03/11 11:49:27;;;;;;;7.00;6.30;;;;;;;10.60;100.00;99149.01;104624;1282;61869;-96
2023/03/11 11:52:17;;;;;;;14.40;7.30;;;;;;;10.57;100.00;99150.06;105101;1279;59795;-93
2023/03/11 11:54:53;;;;;;;8.00;7.20;;;;;;;10.51;100.00;99143.63;105717;1279;73357;-95
2023/03/11 11:57:24;;;;;;;6.40;5.00;;;;;;;10.52;100.00;99148.29;105048;1279;64966;-94
2023/03/11 11:59:52;;;;;;;7.50;6.60;;;;;;;10.53;100.00;99150.43;105143;1279;71382;-93
2023/03/11 12:02:34;;;;;;;7.60;6.10;;;;;;;10.56;100.00;99147.52;105938;1279;62702;-94
2023/03/11 12:05:31;;;;;;;9.50;6.80;;;;;;;10.60;100.00;99138.33;106506;1275;60781;-95
2023/03/11 12:08:22;;;;;;;7.50;6.60;;;;;;;10.65;100.00;99135.84;106292;1273;73212;-96
2023/03/11 12:10:58;;;;;;;6.90;6.20;;;;;;;10.68;100.00;99123.83;107789;1261;62845;-90
2023/03/11 12:14:41;;;;;;;8.10;7.00;;;;;;;10.72;100.00;99119.35;106295;1292;611246;-93
2023/03/11 12:17:31;;;;;;;12.20;7.50;;;;;;;10.69;100.00;99113.66;109607;1255;60147;-96
2023/03/11 12:20:29;;;;;;;13.80;9.80;;;;;;;10.68;100.00;99111.46;109404;1256;59830;-96
2023/03/11 12:24:24;;;;;;;12.90;10.20;;;;;;;10.71;100.00;99108.21;107656;1264;71624;-96
2023/03/11 12:27:36;;;;;;;8.20;6.60;;;;;;;10.68;100.00;99097.31;106880;1262;2127997;-95
2023/03/11 12:30:18;;;;;;;19.30;13.70;;;;;;;10.67;100.00;99097.41;108512;1261;71805;-94
2023/03/11 12:33:44;;;;;;;13.50;10.40;;;;;;;10.64;100.00;99102.19;107736;1262;61797;-95
2023/03/11 12:36:36;;;;;;;9.50;5.80;;;;;;;10.63;100.00;99096.86;107524;1268;59643;-96
2023/03/11 12:39:46;;;;;;;7.80;6.20;;;;;;;10.59;100.00;99091.06;107050;1267;72220;31
2023/03/11 12:42:39;;;;;;;9.00;6.10;;;;;;;10.57;100.00;99088.95;108351;1257;64592;-95
2023/03/11 12:46:10;;;;;;;8.90;6.60;;;;;;;10.50;100.00;99086.00;108248;1257;72072;-96
2023/03/11 12:49:08;;;;;;;13.10;8.30;;;;;;;10.46;100.00;99090.26;109041;1257;61708;-95
2023/03/11 12:51:40;;;;;;;10.00;8.60;;;;;;;10.43;100.00;99086.88;109289;1257;59175;-96
2023/03/11 12:54:34;;;;;;;12.40;9.00;;;;;;;10.38;100.00;99081.98;109277;1257;74745;-95
2023/03/11 12:57:40;;;;;;;11.10;8.50;;;;;;;10.39;100.00;99084.02;109266;1253;62882;-94
2023/03/11 13:00:59;;;;;;;9.10;7.60;;;;;;;10.40;100.00;99076.23;108941;1256;74044;-94
2023/03/11 13:04:30;;;;;;;13.20;7.80;;;;;;;10.44;100.00;99076.08;108033;1262;61136;-96
2023/03/11 13:07:30;;;;;;;;;;;;;;;10.47;100.00;99081.93;108028;1261;60060;-95
2023/03/11 13:11:18;;;;;;;14.10;9.20;;;;;;;10.48;100.00;99074.01;109123;1253;70731;-96
2023/03/11 13:18:17;;;;;;;14.30;8.00;;;;;;;10.52;100.00;99064.39;104147;1269;977345;-95
2023/03/11 13:30:22;;;;;;;11.80;8.20;;;;;;;10.67;100.00;99062.64;105828;1290;613409;-92
2023/03/11 13:33:41;;;;;;;13.10;8.00;;;;;;;10.70;100.00;99048.14;108511;1267;61781;-95
2023/03/11 13:41:40;;;;;;;8.70;5.50;;;;;;;10.69;100.00;99041.67;109272;1257;73567;-96
2023/03/11 13:45:03;;;;;;;8.50;5.80;;;;;;;10.68;100.00;99030.17;107731;1257;63390;-94
2023/03/11 13:53:03;;;;;;;11.40;6.60;;;;;;;10.65;100.00;99018.54;108874;1255;60469;31
2023/03/11 14:00:35;;;;;;;12.20;6.40;;;;;;;10.61;100.00;99001.61;108779;1260;71348;-93
2023/03/11 14:03:55;;;;;;;12.50;6.10;;;;;;;10.52;100.00;98996.98;108770;1257;65553;-93
2023/03/11 14:06:38;;;;;;;17.90;7.10;;;;;;;10.55;100.00;98999.83;108677;1261;72713;-94
2023/03/11 14:09:42;;;;;;;;;;;;;;;10.58;100.00;98999.59;108011;1262;61658;-96
2023/03/11 14:12:31;;;;;;;12.80;6.20;;;;;;;10.56;100.00;98994.66;108102;1262;61163;-96
2023/03/11 14:15:59;;;;;;;15.40;7.00;;;;;;;10.55;100.00;98984.60;108407;1262;72003;-95
2023/03/11 14:19:30;;;;;;;11.00;6.00;;;;;;;10.61;100.00;98977.71;108427;1265;63722;-96
2023/03/11 14:22:59;;;;;;;13.40;5.80;;;;;;;10.59;100.00;98976.77;108312;1261;72899;-96
2023/03/11 14:25:56;;;;;;;;;;;;;;;10.63;100.00;98979.94;108829;1263;60701;-96
2023/03/11 14:35:20;;;;;;;12.50;6.00;;;;;;;10.75;100.00;98964.91;85513;1267;988356;-95
2023/03/11 14:41:58;;;;;;;12.80;5.20;;;;;;;10.77;99.85;98965.77;108704;1264;60476;-96
2023/03/11 14:45:38;;;;;;;11.60;4.90;;;;;;;10.78;99.54;98967.91;108410;1264;58843;-96
2023/03/11 14:49:10;;;;;;;10.80;5.60;;;;;;;10.78;99.41;98967.05;108312;1264;72163;-96
2023/03/11 14:52:07;;;;;;;9.70;6.00;;;;;;;10.79;99.34;98962.30;108335;1264;61024;-95
2023/03/11 14:55:33;;;;;;;12.80;6.60;;;;;;;10.82;99.36;98959.92;108575;1264;71701;-96
2023/03/11 14:59:31;;;;;;;14.40;6.80;;;;;;;10.84;98.99;98960.13;108390;1270;61124;-95
2023/03/11 15:03:00;;;;;;;14.40;6.40;;;;;;;10.83;99.28;98948.15;107627;1270;59224;-95
2023/03/11 15:47:27;;;;;;;13.70;7.70;;;;;;;11.07;96.62;98932.50;110183;1243;73196;-95
2023/03/11 16:01:55;;;;;;;11.40;6.40;;;;;;;11.40;95.61;98925.36;106835;1282;612113;-95
2023/03/11 16:04:40;;;;;;;10.90;6.20;;;;;;;11.46;95.19;98927.65;107017;1269;116090;-94
2023/03/11 16:07:11;;;;;;;16.40;7.20;;;;;;;11.42;95.25;98928.52;107912;1260;60088;-96
2023/03/11 16:10:05;;;;;;;9.70;6.70;;;;;;;11.33;95.20;98929.48;108962;1260;74031;-90
2023/03/11 16:12:43;;;;;;;12.50;7.00;;;;;;;11.23;95.55;98918.91;108181;1262;62952;-96
2023/03/11 16:15:53;;;;;;;17.30;10.00;;;;;;;11.11;95.93;98913.60;108445;1263;72650;-96
2023/03/11 16:19:19;;;;;;;14.10;8.90;;;;;;;10.93;96.78;98910.19;108496;1261;61282;-95
2023/03/11 16:22:34;;;;;;;16.10;10.00;;;;;;;10.81;97.44;98909.83;108339;1257;60320;-96
2023/03/11 16:25:49;;;;;;;15.00;8.70;;;;;;;10.75;98.25;98912.05;108836;1258;70976;-96
2023/03/11 16:28:35;;;;;;;12.80;7.90;;;;;;;10.68;98.48;98915.64;108840;1258;63144;-95
2023/03/11 16:31:33;;;;;;;15.60;8.60;;;;;;;10.67;98.91;98912.31;108198;1256;72786;-95
2023/03/11 16:34:30;;;;;;;16.10;7.50;;;;;;;10.63;99.07;98907.79;108884;1260;61939;-96